Huvudsida
METAR-TAF:

METAR-TAF

Flygplatser :

Chongqing Jiangbei International Airport

Chongqing, Kina

latitud: 29-31N, longitud: 106-29E, höjd: 351 m

Aktuellt väderrapport

Denna rapport gjordes för 41 minuter sedan, klockan 23:00 UTC
Vind 4 kt från ost, varierande mellan nord/nordost och ost/sydost
Temperatur 30°C
Fuktighet 62%
Tryck 1002 hPa
Sikt 10 km eller mer
Inga moln under 1 500 m eller inga cumulonimbus

METAR: ZUCK 222300Z 08002MPS 030V120 CAVOK 30/22 Q1002 NOSIG

Tid: 07:41 (23:41 UTC)

Väderprognos

Denna rapport gjordes för 4 timmar och 27 minuter sedan, klockan 19:14 UTC
Prognos gäller från 23 kl. 00 UTC till 23 kl. 24 UTC
Vind 6 kt från nord/nordost
Sikt: 6000 m
Spridda moln på en höjd av 4000 ft
Temporärt
från 23 kl. 06 UTC till 23 kl. 12 UTC
Spridda moln på en höjd av 3000 ft
Få moln på en höjd av 4000 ft, Cumulonimbus.

TAF: ZUCK 221914Z 2300/2324 03003MPS 6000 SCT040 TX38/2308Z TN30/2321Z TEMPO 2306/2312 SCT030 FEW040CB

Aktuella väderrapporter och prognoser från 4000 flygplatser (METAR- och TAF-rapporter).

De tillgängliga stationerna syns som gula och röda prickar på kartan.

För musen över prickarna för att se namnen på stationerna.

Klicka sedan för att få väderrapporter och prognoser.

För att ändra kartan: Klicka på de gröna knapparna med ett svart kors på för att zooma in; den gröna knappen med ett streck på för att zooma ut; eller på de gröna pilarna för angränsande kartor.


METAR-TAF: